sensor_id;sensor_type;location;lat;lon;timestamp;pressure;altitude;pressure_sealevel;temperature;humidity
75146;BME280;63641;46.526;24.612;2022-12-22T00:02:26;97495.38;;;-1.75;71.54
75146;BME280;63641;46.526;24.612;2022-12-22T00:07:57;97489.47;;;-1.77;71.72
75146;BME280;63641;46.526;24.612;2022-12-22T00:10:43;97490.03;;;-1.81;71.53
75146;BME280;63641;46.526;24.612;2022-12-22T00:13:28;97493.94;;;-1.84;71.57
75146;BME280;63641;46.526;24.612;2022-12-22T00:16:14;97484.31;;;-1.85;71.69
75146;BME280;63641;46.526;24.612;2022-12-22T00:18:59;97489.63;;;-1.85;71.48
75146;BME280;63641;46.526;24.612;2022-12-22T00:21:44;97486.16;;;-1.85;71.56
75146;BME280;63641;46.526;24.612;2022-12-22T00:24:30;97479.41;;;-1.88;71.78
75146;BME280;63641;46.526;24.612;2022-12-22T00:27:27;97485.34;;;-1.86;71.79
75146;BME280;63641;46.526;24.612;2022-12-22T00:30:14;97486.16;;;-1.85;71.75
75146;BME280;63641;46.526;24.612;2022-12-22T00:33:02;97476.34;;;-1.85;71.66
75146;BME280;63641;46.526;24.612;2022-12-22T00:35:49;97481.47;;;-1.83;71.90
75146;BME280;63641;46.526;24.612;2022-12-22T00:38:35;97477.00;;;-1.83;71.77
75146;BME280;63641;46.526;24.612;2022-12-22T00:41:21;97471.69;;;-1.83;71.81
75146;BME280;63641;46.526;24.612;2022-12-22T00:44:06;97472.09;;;-1.86;71.88
75146;BME280;63641;46.526;24.612;2022-12-22T00:46:52;97466.56;;;-1.84;72.02
75146;BME280;63641;46.526;24.612;2022-12-22T00:49:39;97465.16;;;-1.87;71.71
75146;BME280;63641;46.526;24.612;2022-12-22T00:52:28;97462.50;;;-1.87;71.75
75146;BME280;63641;46.526;24.612;2022-12-22T00:55:16;97462.50;;;-1.87;72.13
75146;BME280;63641;46.526;24.612;2022-12-22T00:58:05;97456.38;;;-1.87;72.05
75146;BME280;63641;46.526;24.612;2022-12-22T01:04:34;97454.72;;;-1.88;71.78
75146;BME280;63641;46.526;24.612;2022-12-22T01:07:20;97440.22;;;-1.92;71.79
75146;BME280;63641;46.526;24.612;2022-12-22T01:10:12;97451.88;;;-1.87;71.96
75146;BME280;63641;46.526;24.612;2022-12-22T01:12:58;97440.66;;;-1.89;72.04
75146;BME280;63641;46.526;24.612;2022-12-22T01:15:43;97429.44;;;-1.91;71.79
75146;BME280;63641;46.526;24.612;2022-12-22T01:18:35;97440.25;;;-1.86;72.08
75146;BME280;63641;46.526;24.612;2022-12-22T01:21:20;97429.25;;;-1.83;71.90
75146;BME280;63641;46.526;24.612;2022-12-22T01:24:13;97432.31;;;-1.79;72.07
75146;BME280;63641;46.526;24.612;2022-12-22T01:26:58;97420.06;;;-1.87;71.78
75146;BME280;63641;46.526;24.612;2022-12-22T01:29:44;97418.81;;;-1.84;72.20
75146;BME280;63641;46.526;24.612;2022-12-22T01:32:29;97410.88;;;-1.84;72.14
75146;BME280;63641;46.526;24.612;2022-12-22T01:35:28;97410.06;;;-1.85;72.03
75146;BME280;63641;46.526;24.612;2022-12-22T01:38:14;97413.34;;;-1.83;72.38
75146;BME280;63641;46.526;24.612;2022-12-22T01:41:01;97400.06;;;-1.83;72.10
75146;BME280;63641;46.526;24.612;2022-12-22T01:43:47;97407.25;;;-1.77;72.21
75146;BME280;63641;46.526;24.612;2022-12-22T01:46:42;97414.59;;;-1.72;72.46
75146;BME280;63641;46.526;24.612;2022-12-22T01:52:16;97410.28;;;-1.73;72.33
75146;BME280;63641;46.526;24.612;2022-12-22T01:55:08;97416.22;;;-1.71;72.23
75146;BME280;63641;46.526;24.612;2022-12-22T01:57:54;97403.75;;;-1.71;72.14
75146;BME280;63641;46.526;24.612;2022-12-22T02:00:41;97387.66;;;-1.76;72.29
75146;BME280;63641;46.526;24.612;2022-12-22T02:03:27;97402.34;;;-1.66;72.24
75146;BME280;63641;46.526;24.612;2022-12-22T02:06:25;97405.81;;;-1.66;72.52
75146;BME280;63641;46.526;24.612;2022-12-22T02:12:09;97405.00;;;-1.66;72.34
75146;BME280;63641;46.526;24.612;2022-12-22T02:18:41;97400.31;;;-1.64;72.47
75146;BME280;63641;46.526;24.612;2022-12-22T02:21:35;97401.34;;;-1.65;72.44
75146;BME280;63641;46.526;24.612;2022-12-22T02:27:23;97390.72;;;-1.72;72.62
75146;BME280;63641;46.526;24.612;2022-12-22T02:30:11;97400.31;;;-1.64;72.69
75146;BME280;63641;46.526;24.612;2022-12-22T02:32:57;97384.59;;;-1.73;72.42
75146;BME280;63641;46.526;24.612;2022-12-22T02:36:20;97386.44;;;-1.66;72.48
75146;BME280;63641;46.526;24.612;2022-12-22T02:39:17;97397.66;;;-1.64;72.35
75146;BME280;63641;46.526;24.612;2022-12-22T02:48:38;97403.16;;;-1.59;72.62
75146;BME280;63641;46.526;24.612;2022-12-22T02:51:27;97388.47;;;-1.68;72.67
75146;BME280;63641;46.526;24.612;2022-12-22T02:54:16;97395.81;;;-1.64;72.41
75146;BME280;63641;46.526;24.612;2022-12-22T02:57:05;97397.88;;;-1.59;72.51
75146;BME280;63641;46.526;24.612;2022-12-22T02:59:51;97398.69;;;-1.59;72.64
75146;BME280;63641;46.526;24.612;2022-12-22T03:02:36;97391.75;;;-1.60;72.73
75146;BME280;63641;46.526;24.612;2022-12-22T03:05:22;97388.09;;;-1.65;72.35
75146;BME280;63641;46.526;24.612;2022-12-22T03:08:08;97394.81;;;-1.63;72.52
75146;BME280;63641;46.526;24.612;2022-12-22T03:10:53;97406.22;;;-1.62;72.46
75146;BME280;63641;46.526;24.612;2022-12-22T03:13:39;97394.59;;;-1.68;72.64
75146;BME280;63641;46.526;24.612;2022-12-22T03:16:25;97397.84;;;-1.66;72.45
75146;BME280;63641;46.526;24.612;2022-12-22T03:19:11;97395.19;;;-1.66;72.50
75146;BME280;63641;46.526;24.612;2022-12-22T03:21:57;97387.25;;;-1.73;72.47
75146;BME280;63641;46.526;24.612;2022-12-22T03:24:43;97380.91;;;-1.78;72.44
75146;BME280;63641;46.526;24.612;2022-12-22T03:27:28;97396.84;;;-1.72;72.48
75146;BME280;63641;46.526;24.612;2022-12-22T03:29:55;97389.06;;;-1.73;72.76
75146;BME280;63641;46.526;24.612;2022-12-22T03:32:21;97384.38;;;-1.78;72.53
75146;BME280;63641;46.526;24.612;2022-12-22T03:34:48;97391.31;;;-1.77;72.58
75146;BME280;63641;46.526;24.612;2022-12-22T03:37:15;97391.31;;;-1.77;72.55
75146;BME280;63641;46.526;24.612;2022-12-22T03:39:42;97376.00;;;-1.81;72.87
75146;BME280;63641;46.526;24.612;2022-12-22T03:42:11;97382.75;;;-1.79;72.66
75146;BME280;63641;46.526;24.612;2022-12-22T03:44:57;97366.00;;;-1.86;72.64
75146;BME280;63641;46.526;24.612;2022-12-22T03:47:42;97372.13;;;-1.85;72.45
75146;BME280;63641;46.526;24.612;2022-12-22T03:50:09;97374.97;;;-1.87;72.55
75146;BME280;63641;46.526;24.612;2022-12-22T03:52:36;97365.16;;;-1.93;72.43
75146;BME280;63641;46.526;24.612;2022-12-22T03:55:02;97356.19;;;-1.99;72.44
75146;BME280;63641;46.526;24.612;2022-12-22T03:57:29;97372.50;;;-1.88;72.47
75146;BME280;63641;46.526;24.612;2022-12-22T03:59:56;97376.41;;;-1.91;72.77
75146;BME280;63641;46.526;24.612;2022-12-22T04:02:23;97369.66;;;-1.93;72.41
75146;BME280;63641;46.526;24.612;2022-12-22T04:04:50;97356.19;;;-1.99;72.73
75146;BME280;63641;46.526;24.612;2022-12-22T04:07:17;97362.31;;;-1.98;72.51
75146;BME280;63641;46.526;24.612;2022-12-22T04:09:43;97358.59;;;-2.04;72.69
75146;BME280;63641;46.526;24.612;2022-12-22T04:12:30;97362.69;;;-2.08;72.72
75146;BME280;63641;46.526;24.612;2022-12-22T04:15:15;97366.34;;;-2.09;72.84
75146;BME280;63641;46.526;24.612;2022-12-22T04:17:42;97361.03;;;-2.15;72.56
75146;BME280;63641;46.526;24.612;2022-12-22T04:20:09;97358.59;;;-2.17;72.52
75146;BME280;63641;46.526;24.612;2022-12-22T04:22:36;97374.06;;;-2.14;72.74
75146;BME280;63641;46.526;24.612;2022-12-22T04:25:03;97367.53;;;-2.18;72.71
75146;BME280;63641;46.526;24.612;2022-12-22T04:27:30;97343.03;;;-2.33;72.71
75146;BME280;63641;46.526;24.612;2022-12-22T04:29:57;97346.31;;;-2.31;72.64
75146;BME280;63641;46.526;24.612;2022-12-22T04:32:24;97363.06;;;-2.24;72.06
75146;BME280;63641;46.526;24.612;2022-12-22T04:34:50;97359.16;;;-2.28;72.62
75146;BME280;63641;46.526;24.612;2022-12-22T04:37:17;97357.47;;;-2.36;72.49
75146;BME280;63641;46.526;24.612;2022-12-22T04:39:44;97355.03;;;-2.37;72.72
75146;BME280;63641;46.526;24.612;2022-12-22T04:42:10;97358.13;;;-2.34;72.50
75146;BME280;63641;46.526;24.612;2022-12-22T04:44:37;97351.34;;;-2.43;72.51
75146;BME280;63641;46.526;24.612;2022-12-22T04:47:04;97358.50;;;-2.37;72.48
75146;BME280;63641;46.526;24.612;2022-12-22T04:49:31;97358.09;;;-2.40;72.45
75146;BME280;63641;46.526;24.612;2022-12-22T04:51:58;97357.88;;;-2.46;72.38
75146;BME280;63641;46.526;24.612;2022-12-22T04:54:24;97359.09;;;-2.41;72.64
75146;BME280;63641;46.526;24.612;2022-12-22T04:56:52;97357.88;;;-2.46;72.55
75146;BME280;63641;46.526;24.612;2022-12-22T04:59:18;97340.28;;;-2.60;72.63
75146;BME280;63641;46.526;24.612;2022-12-22T05:01:45;97351.50;;;-2.51;72.84
75146;BME280;63641;46.526;24.612;2022-12-22T05:04:12;97354.97;;;-2.51;72.88
75146;BME280;63641;46.526;24.612;2022-12-22T05:06:45;97343.97;;;-2.54;72.90
75146;BME280;63641;46.526;24.612;2022-12-22T05:09:12;97350.50;;;-2.57;72.40
75146;BME280;63641;46.526;24.612;2022-12-22T05:11:39;97344.97;;;-2.55;72.84
75146;BME280;63641;46.526;24.612;2022-12-22T05:14:05;97343.97;;;-2.61;72.71
75146;BME280;63641;46.526;24.612;2022-12-22T05:16:33;97365.34;;;-2.56;72.46
75146;BME280;63641;46.526;24.612;2022-12-22T05:18:59;97354.97;;;-2.57;72.63
75146;BME280;63641;46.526;24.612;2022-12-22T05:21:26;97358.00;;;-2.60;72.43
75146;BME280;63641;46.526;24.612;2022-12-22T05:23:53;97358.63;;;-2.58;72.41
75146;BME280;63641;46.526;24.612;2022-12-22T05:26:19;97360.03;;;-2.62;72.36
75146;BME280;63641;46.526;24.612;2022-12-22T05:28:46;97345.50;;;-2.73;72.38
75146;BME280;63641;46.526;24.612;2022-12-22T05:31:16;97364.72;;;-2.64;72.74
75146;BME280;63641;46.526;24.612;2022-12-22T05:33:44;97356.34;;;-2.68;72.35
75146;BME280;63641;46.526;24.612;2022-12-22T05:36:10;97366.72;;;-2.67;72.48
75146;BME280;63641;46.526;24.612;2022-12-22T05:38:37;97361.22;;;-2.72;72.42
75146;BME280;63641;46.526;24.612;2022-12-22T05:41:06;97354.25;;;-2.73;72.82
75146;BME280;63641;46.526;24.612;2022-12-22T05:43:33;97358.16;;;-2.75;72.58
75146;BME280;63641;46.526;24.612;2022-12-22T05:46:05;97359.78;;;-2.74;72.61
75146;BME280;63641;46.526;24.612;2022-12-22T05:48:33;97362.81;;;-2.77;72.50
75146;BME280;63641;46.526;24.612;2022-12-22T05:51:05;97363.81;;;-2.78;72.81
75146;BME280;63641;46.526;24.612;2022-12-22T05:53:33;97359.13;;;-2.83;72.84
75146;BME280;63641;46.526;24.612;2022-12-22T05:55:59;97367.28;;;-2.78;72.80
75146;BME280;63641;46.526;24.612;2022-12-22T05:58:26;97363.63;;;-2.77;72.77
75146;BME280;63641;46.526;24.612;2022-12-22T06:00:59;97346.91;;;-2.77;72.74
75146;BME280;63641;46.526;24.612;2022-12-22T06:03:27;97363.22;;;-2.74;72.82
75146;BME280;63641;46.526;24.612;2022-12-22T06:05:55;97351.00;;;-2.75;72.57
75146;BME280;63641;46.526;24.612;2022-12-22T06:08:23;97359.56;;;-2.73;72.67
75146;BME280;63641;46.526;24.612;2022-12-22T06:10:52;97361.22;;;-2.72;72.78
75146;BME280;63641;46.526;24.612;2022-12-22T06:13:20;97358.56;;;-2.72;73.00
75146;BME280;63641;46.526;24.612;2022-12-22T06:15:47;97361.22;;;-2.72;72.78
75146;BME280;63641;46.526;24.612;2022-12-22T06:18:14;97358.75;;;-2.73;72.87
75146;BME280;63641;46.526;24.612;2022-12-22T06:20:44;97354.03;;;-2.78;72.87
75146;BME280;63641;46.526;24.612;2022-12-22T06:23:12;97363.88;;;-2.72;72.65
75146;BME280;63641;46.526;24.612;2022-12-22T06:25:38;97367.94;;;-2.69;72.64
75146;BME280;63641;46.526;24.612;2022-12-22T06:28:05;97374.69;;;-2.67;72.51
75146;BME280;63641;46.526;24.612;2022-12-22T06:30:32;97372.03;;;-2.67;72.93
75146;BME280;63641;46.526;24.612;2022-12-22T06:32:59;97366.72;;;-2.67;72.72
75146;BME280;63641;46.526;24.612;2022-12-22T06:35:27;97367.75;;;-2.68;72.52
75146;BME280;63641;46.526;24.612;2022-12-22T06:37:54;97367.13;;;-2.70;72.78
75146;BME280;63641;46.526;24.612;2022-12-22T06:40:21;97377.75;;;-2.63;72.85
75146;BME280;63641;46.526;24.612;2022-12-22T06:42:48;97378.19;;;-2.59;72.99
75146;BME280;63641;46.526;24.612;2022-12-22T06:45:40;97371.44;;;-2.62;72.84
75146;BME280;63641;46.526;24.612;2022-12-22T06:48:08;97376.78;;;-2.55;72.91
75146;BME280;63641;46.526;24.612;2022-12-22T06:50:35;97364.16;;;-2.53;72.82
75146;BME280;63641;46.526;24.612;2022-12-22T06:53:03;97364.34;;;-2.55;72.66
75146;BME280;63641;46.526;24.612;2022-12-22T06:55:30;97365.34;;;-2.56;72.81
75146;BME280;63641;46.526;24.612;2022-12-22T06:57:57;97374.38;;;-2.44;72.78
75146;BME280;63641;46.526;24.612;2022-12-22T07:00:24;97373.97;;;-2.40;72.81
75146;BME280;63641;46.526;24.612;2022-12-22T07:02:50;97366.84;;;-2.47;72.91
75146;BME280;63641;46.526;24.612;2022-12-22T07:05:18;97369.09;;;-2.37;72.85
75146;BME280;63641;46.526;24.612;2022-12-22T07:07:45;97375.22;;;-2.36;72.90
75146;BME280;63641;46.526;24.612;2022-12-22T07:10:12;97376.28;;;-2.31;72.83
75146;BME280;63641;46.526;24.612;2022-12-22T07:12:38;97377.72;;;-2.22;73.15
75146;BME280;63641;46.526;24.612;2022-12-22T07:15:06;97370.41;;;-2.20;73.32
75146;BME280;63641;46.526;24.612;2022-12-22T07:17:33;97379.19;;;-2.12;72.90
75146;BME280;63641;46.526;24.612;2022-12-22T07:20:00;97377.78;;;-2.08;73.00
75146;BME280;63641;46.526;24.612;2022-12-22T07:22:27;97365.53;;;-2.03;72.91
75146;BME280;63641;46.526;24.612;2022-12-22T07:24:57;97364.31;;;-2.00;73.23
75146;BME280;63641;46.526;24.612;2022-12-22T07:27:24;97360.25;;;-1.96;73.77
75146;BME280;63641;46.526;24.612;2022-12-22T07:29:50;97354.97;;;-1.89;73.71
75146;BME280;63641;46.526;24.612;2022-12-22T07:32:17;97378.66;;;-1.75;73.60
75146;BME280;63641;46.526;24.612;2022-12-22T07:34:44;97369.09;;;-1.76;73.59
75146;BME280;63641;46.526;24.612;2022-12-22T07:37:11;97373.16;;;-1.66;73.75
75146;BME280;63641;46.526;24.612;2022-12-22T07:39:39;97368.09;;;-1.61;73.87
75146;BME280;63641;46.526;24.612;2022-12-22T07:42:06;97370.34;;;-1.58;73.73
75146;BME280;63641;46.526;24.612;2022-12-22T07:44:51;97378.28;;;-1.52;73.61
75146;BME280;63641;46.526;24.612;2022-12-22T07:47:18;97370.72;;;-1.48;73.70
75146;BME280;63641;46.526;24.612;2022-12-22T07:49:44;97368.72;;;-1.39;73.84
75146;BME280;63641;46.526;24.612;2022-12-22T07:52:47;97357.88;;;-1.38;73.93
75146;BME280;63641;46.526;24.612;2022-12-22T07:55:14;97367.88;;;-1.27;73.98
75146;BME280;63641;46.526;24.612;2022-12-22T07:57:41;97367.28;;;-1.29;73.67
75146;BME280;63641;46.526;24.612;2022-12-22T08:00:08;97362.97;;;-1.30;73.76
75146;BME280;63641;46.526;24.612;2022-12-22T08:02:35;97369.31;;;-1.17;73.82
75146;BME280;63641;46.526;24.612;2022-12-22T08:05:05;97378.50;;;-1.07;73.66
75146;BME280;63641;46.526;24.612;2022-12-22T08:07:32;97363.78;;;-1.09;73.69
75146;BME280;63641;46.526;24.612;2022-12-22T08:09:59;97359.69;;;-1.05;73.83
75146;BME280;63641;46.526;24.612;2022-12-22T08:12:26;97372.56;;;-0.95;73.79
75146;BME280;63641;46.526;24.612;2022-12-22T08:14:55;97343.94;;;-1.00;74.41
75146;BME280;63641;46.526;24.612;2022-12-22T08:17:22;97356.41;;;-0.81;74.20
75146;BME280;63641;46.526;24.612;2022-12-22T08:19:48;97358.81;;;-0.66;74.07
75146;BME280;63641;46.526;24.612;2022-12-22T08:22:15;97354.88;;;-0.57;73.95
75146;BME280;63641;46.526;24.612;2022-12-22T08:24:42;97350.78;;;-0.53;73.90
75146;BME280;63641;46.526;24.612;2022-12-22T08:27:12;97356.25;;;-0.41;73.96
75146;BME280;63641;46.526;24.612;2022-12-22T08:29:54;97331.13;;;-0.45;74.34
75146;BME280;63641;46.526;24.612;2022-12-22T08:32:22;97351.31;;;-0.31;74.15
75146;BME280;63641;46.526;24.612;2022-12-22T08:34:50;97351.66;;;-0.20;74.25
75146;BME280;63641;46.526;24.612;2022-12-22T08:37:20;97338.75;;;-0.17;74.04
75146;BME280;63641;46.526;24.612;2022-12-22T08:39:52;97338.50;;;-0.09;74.17
75146;BME280;63641;46.526;24.612;2022-12-22T08:42:20;97332.53;;;-0.04;73.93
75146;BME280;63641;46.526;24.612;2022-12-22T08:44:48;97329.84;;;0.03;74.25
75146;BME280;63641;46.526;24.612;2022-12-22T08:47:20;97317.97;;;0.05;73.97
75146;BME280;63641;46.526;24.612;2022-12-22T08:49:48;97317.13;;;0.11;73.88
75146;BME280;63641;46.526;24.612;2022-12-22T08:52:16;97327.09;;;0.22;74.10
75146;BME280;63641;46.526;24.612;2022-12-22T08:54:45;97324.81;;;0.26;73.88
75146;BME280;63641;46.526;24.612;2022-12-22T08:57:12;97306.22;;;0.19;73.84
75146;BME280;63641;46.526;24.612;2022-12-22T08:59:39;97318.78;;;0.37;73.73
75146;BME280;63641;46.526;24.612;2022-12-22T09:02:06;97322.41;;;0.43;74.03
75146;BME280;63641;46.526;24.612;2022-12-22T09:04:33;97319.34;;;0.46;74.10
75146;BME280;63641;46.526;24.612;2022-12-22T09:07:00;97304.56;;;0.50;74.15
75146;BME280;63641;46.526;24.612;2022-12-22T09:09:32;97309.59;;;0.58;74.10
75146;BME280;63641;46.526;24.612;2022-12-22T09:12:00;97311.41;;;0.64;74.06
75146;BME280;63641;46.526;24.612;2022-12-22T09:14:28;97291.72;;;0.65;73.80
75146;BME280;63641;46.526;24.612;2022-12-22T09:16:55;97296.75;;;0.73;73.80
75146;BME280;63641;46.526;24.612;2022-12-22T09:19:38;97296.31;;;0.77;73.89
75146;BME280;63641;46.526;24.612;2022-12-22T09:22:08;97300.34;;;0.86;73.86
75146;BME280;63641;46.526;24.612;2022-12-22T09:24:35;97293.97;;;0.87;74.18
75146;BME280;63641;46.526;24.612;2022-12-22T09:27:02;97296.97;;;0.97;73.83
75146;BME280;63641;46.526;24.612;2022-12-22T09:29:29;97284.59;;;1.03;74.08
75146;BME280;63641;46.526;24.612;2022-12-22T09:31:56;97278.63;;;1.07;73.72
75146;BME280;63641;46.526;24.612;2022-12-22T09:34:23;97286.44;;;1.20;73.88
75146;BME280;63641;46.526;24.612;2022-12-22T09:36:50;97284.53;;;1.28;74.01
75146;BME280;63641;46.526;24.612;2022-12-22T09:39:17;97273.41;;;1.31;73.77
75146;BME280;63641;46.526;24.612;2022-12-22T09:41:53;97287.78;;;1.48;73.92
75146;BME280;63641;46.526;24.612;2022-12-22T09:44:32;97267.63;;;1.52;73.46
75146;BME280;63641;46.526;24.612;2022-12-22T09:47:02;97255.59;;;1.61;73.60
75146;BME280;63641;46.526;24.612;2022-12-22T09:49:30;97255.41;;;1.75;72.99
75146;BME280;63641;46.526;24.612;2022-12-22T09:51:59;97260.66;;;1.81;72.42
75146;BME280;63641;46.526;24.612;2022-12-22T09:54:26;97276.44;;;1.83;72.16
75146;BME280;63641;46.526;24.612;2022-12-22T09:56:54;97255.25;;;1.88;71.80
75146;BME280;63641;46.526;24.612;2022-12-22T09:59:24;97259.22;;;1.97;71.37
75146;BME280;63641;46.526;24.612;2022-12-22T10:07:36;97228.16;;;2.26;71.06
75146;BME280;63641;46.526;24.612;2022-12-22T10:10:21;97232.69;;;2.37;71.11
75146;BME280;63641;46.526;24.612;2022-12-22T10:12:54;97230.16;;;2.42;70.57
75146;BME280;63641;46.526;24.612;2022-12-22T10:15:22;97227.97;;;2.51;70.52
75146;BME280;63641;46.526;24.612;2022-12-22T10:17:55;97226.00;;;2.58;70.39
75146;BME280;63641;46.526;24.612;2022-12-22T10:20:34;97212.28;;;2.66;69.86
75146;BME280;63641;46.526;24.612;2022-12-22T10:23:13;97198.22;;;2.71;69.62
75146;BME280;63641;46.526;24.612;2022-12-22T10:25:57;97199.25;;;2.82;69.34
75146;BME280;63641;46.526;24.612;2022-12-22T10:28:49;97191.91;;;2.89;69.08
75146;BME280;63641;46.526;24.612;2022-12-22T10:31:29;97183.44;;;2.92;68.15
75146;BME280;63641;46.526;24.612;2022-12-22T10:34:15;97199.34;;;2.99;67.88
75146;BME280;63641;46.526;24.612;2022-12-22T10:36:47;97169.38;;;2.85;67.31
75146;BME280;63641;46.526;24.612;2022-12-22T10:39:27;97177.63;;;2.95;67.31
75146;BME280;63641;46.526;24.612;2022-12-22T10:42:12;97198.59;;;3.15;67.21
75146;BME280;63641;46.526;24.612;2022-12-22T10:44:45;97182.22;;;3.11;67.00
75146;BME280;63641;46.526;24.612;2022-12-22T10:47:18;97206.34;;;3.28;67.03
75146;BME280;63641;46.526;24.612;2022-12-22T10:49:48;97188.53;;;3.34;66.95
75146;BME280;63641;46.526;24.612;2022-12-22T10:52:35;97189.22;;;3.41;66.81
75146;BME280;63641;46.526;24.612;2022-12-22T10:55:16;97193.38;;;3.49;66.47
75146;BME280;63641;46.526;24.612;2022-12-22T10:57:43;97184.59;;;3.53;66.32
75146;BME280;63641;46.526;24.612;2022-12-22T11:02:53;97179.94;;;3.60;65.71
75146;BME280;63641;46.526;24.612;2022-12-22T11:05:20;97176.78;;;3.63;65.54
75146;BME280;63641;46.526;24.612;2022-12-22T11:07:48;97159.78;;;3.70;65.23
75146;BME280;63641;46.526;24.612;2022-12-22T11:13:16;97155.88;;;3.77;64.42
75146;BME280;63641;46.526;24.612;2022-12-22T11:27:12;97160.84;;;4.02;63.74
75146;BME280;63641;46.526;24.612;2022-12-22T11:29:56;97155.81;;;4.06;63.56
75146;BME280;63641;46.526;24.612;2022-12-22T11:38:15;97139.59;;;4.13;63.36
75146;BME280;63641;46.526;24.612;2022-12-22T11:57:57;97111.50;;;4.32;62.39
75146;BME280;63641;46.526;24.612;2022-12-22T12:00:36;97101.00;;;4.30;62.24
75146;BME280;63641;46.526;24.612;2022-12-22T12:12:01;97108.28;;;4.52;61.57
75146;BME280;63641;46.526;24.612;2022-12-22T12:20:57;97113.59;;;4.69;61.13
75146;BME280;63641;46.526;24.612;2022-12-22T12:29:08;97107.66;;;4.89;60.41
75146;BME280;63641;46.526;24.612;2022-12-22T12:31:31;97096.13;;;4.88;60.27
75146;BME280;63641;46.526;24.612;2022-12-22T12:34:00;97104.31;;;4.98;60.11
75146;BME280;63641;46.526;24.612;2022-12-22T12:36:56;97096.63;;;5.07;59.94
75146;BME280;63641;46.526;24.612;2022-12-22T12:39:36;97105.28;;;5.14;59.60
75146;BME280;63641;46.526;24.612;2022-12-22T12:42:41;97085.22;;;5.17;59.24
75146;BME280;63641;46.526;24.612;2022-12-22T12:50:57;97063.59;;;5.01;59.00
75146;BME280;63641;46.526;24.612;2022-12-22T12:53:28;97056.84;;;4.99;58.89
75146;BME280;63641;46.526;24.612;2022-12-22T12:55:59;97060.34;;;4.99;58.41
75146;BME280;63641;46.526;24.612;2022-12-22T13:01:11;97059.22;;;4.95;58.18
75146;BME280;63641;46.526;24.612;2022-12-22T13:03:40;97087.81;;;5.12;58.04
75146;BME280;63641;46.526;24.612;2022-12-22T13:06:47;97074.97;;;5.14;57.75
75146;BME280;63641;46.526;24.612;2022-12-22T13:09:22;97070.25;;;4.99;57.26
75146;BME280;63641;46.526;24.612;2022-12-22T13:12:31;97096.47;;;5.19;57.45
75146;BME280;63641;46.526;24.612;2022-12-22T13:14:59;97087.31;;;5.15;57.36
75146;BME280;63641;46.526;24.612;2022-12-22T13:20:04;97095.16;;;5.21;57.24
75146;BME280;63641;46.526;24.612;2022-12-22T13:22:32;97085.81;;;5.24;57.44
75146;BME280;63641;46.526;24.612;2022-12-22T13:25:00;97091.22;;;5.29;57.46
75146;BME280;63641;46.526;24.612;2022-12-22T13:27:29;97075.28;;;5.17;57.63
75146;BME280;63641;46.526;24.612;2022-12-22T13:29:58;97077.16;;;5.17;57.95
75146;BME280;63641;46.526;24.612;2022-12-22T13:32:29;97077.16;;;5.17;57.77
75146;BME280;63641;46.526;24.612;2022-12-22T13:35:35;97083.66;;;5.26;57.83
75146;BME280;63641;46.526;24.612;2022-12-22T13:38:35;97096.09;;;5.32;57.88
75146;BME280;63641;46.526;24.612;2022-12-22T13:41:27;97101.44;;;5.32;57.82
75146;BME280;63641;46.526;24.612;2022-12-22T13:44:18;97069.34;;;5.15;57.74
75146;BME280;63641;46.526;24.612;2022-12-22T13:46:52;97088.50;;;5.24;57.75
75146;BME280;63641;46.526;24.612;2022-12-22T13:53:15;97081.00;;;5.26;58.30
75146;BME280;63641;46.526;24.612;2022-12-22T13:56:08;97058.56;;;5.10;58.42
75146;BME280;63641;46.526;24.612;2022-12-22T13:58:54;97098.78;;;5.32;58.69
75146;BME280;63641;46.526;24.612;2022-12-22T14:05:10;97086.81;;;5.18;59.49
75146;BME280;63641;46.526;24.612;2022-12-22T14:07:59;97104.59;;;5.24;59.62
75146;BME280;63641;46.526;24.612;2022-12-22T14:13:05;97105.91;;;5.21;59.80
75146;BME280;63641;46.526;24.612;2022-12-22T14:15:35;97116.09;;;5.19;59.85
75146;BME280;63641;46.526;24.612;2022-12-22T14:18:02;97093.13;;;5.06;60.06
75146;BME280;63641;46.526;24.612;2022-12-22T14:20:35;97078.00;;;4.95;60.06
75146;BME280;63641;46.526;24.612;2022-12-22T14:23:15;97086.34;;;4.99;60.24
75146;BME280;63641;46.526;24.612;2022-12-22T14:26:19;97095.56;;;5.08;60.57
75146;BME280;63641;46.526;24.612;2022-12-22T14:29:06;97096.31;;;5.03;60.74
75146;BME280;63641;46.526;24.612;2022-12-22T14:32:01;97075.38;;;4.78;60.63
75146;BME280;63641;46.526;24.612;2022-12-22T14:34:36;97096.63;;;4.85;60.87
75146;BME280;63641;46.526;24.612;2022-12-22T14:37:23;97092.78;;;4.76;60.99
75146;BME280;63641;46.526;24.612;2022-12-22T14:43:28;97067.72;;;4.65;61.00
75146;BME280;63641;46.526;24.612;2022-12-22T14:46:06;97087.97;;;4.78;61.00
75146;BME280;63641;46.526;24.612;2022-12-22T14:48:39;97101.69;;;4.81;61.24
75146;BME280;63641;46.526;24.612;2022-12-22T14:51:19;97108.38;;;4.79;61.29
75146;BME280;63641;46.526;24.612;2022-12-22T14:53:57;97084.47;;;4.55;61.41
75146;BME280;63641;46.526;24.612;2022-12-22T14:56:25;97120.53;;;4.65;61.59
75146;BME280;63641;46.526;24.612;2022-12-22T14:59:27;97121.44;;;4.53;61.55
75146;BME280;63641;46.526;24.612;2022-12-22T15:02:02;97125.47;;;4.56;61.23
75146;BME280;63641;46.526;24.612;2022-12-22T15:04:29;97132.97;;;4.54;61.51
75146;BME280;63641;46.526;24.612;2022-12-22T15:07:06;97125.16;;;4.52;61.52
75146;BME280;63641;46.526;24.612;2022-12-22T15:10:00;97114.97;;;4.49;61.62
75146;BME280;63641;46.526;24.612;2022-12-22T15:12:44;97111.97;;;4.46;61.67
75146;BME280;63641;46.526;24.612;2022-12-22T15:15:17;97107.91;;;4.43;61.87
75146;BME280;63641;46.526;24.612;2022-12-22T15:17:49;97116.09;;;4.36;62.11
75146;BME280;63641;46.526;24.612;2022-12-22T15:20:20;97113.59;;;4.30;62.05
75146;BME280;63641;46.526;24.612;2022-12-22T15:22:48;97118.56;;;4.21;62.25
75146;BME280;63641;46.526;24.612;2022-12-22T15:25:21;97126.22;;;4.13;62.13
75146;BME280;63641;46.526;24.612;2022-12-22T15:27:48;97136.84;;;4.07;62.50
75146;BME280;63641;46.526;24.612;2022-12-22T15:30:18;97134.63;;;4.04;62.29
75146;BME280;63641;46.526;24.612;2022-12-22T15:32:45;97127.81;;;3.97;62.34
75146;BME280;63641;46.526;24.612;2022-12-22T15:35:18;97144.56;;;3.87;62.47